createdAt,value
2019-01-31T00:02:19.788Z,34.90
2019-01-31T00:05:46.750Z,36.70
2019-01-31T00:08:46.382Z,34.83
2019-01-31T00:12:02.831Z,36.90
2019-01-31T00:15:07.555Z,36.70
2019-01-31T00:18:30.203Z,35.13
2019-01-31T00:21:44.705Z,35.93
2019-01-31T00:24:42.738Z,33.97
2019-01-31T00:28:21.335Z,33.73
2019-01-31T00:31:44.398Z,34.17
2019-01-31T00:34:51.244Z,34.50
2019-01-31T00:38:25.062Z,34.20
2019-01-31T00:41:29.278Z,33.47
2019-01-31T00:45:22.082Z,33.77
2019-01-31T00:48:59.961Z,33.27
2019-01-31T00:52:19.670Z,33.40
2019-01-31T00:55:43.429Z,34.30
2019-01-31T00:58:43.193Z,35.50
2019-01-31T01:02:14.665Z,34.77
2019-01-31T01:05:47.147Z,35.03
2019-01-31T01:09:33.598Z,34.00
2019-01-31T01:13:20.518Z,37.47
2019-01-31T01:16:43.210Z,36.10
2019-01-31T01:20:27.127Z,37.67
2019-01-31T01:23:49.828Z,36.87
2019-01-31T01:26:44.011Z,36.00
2019-01-31T01:29:46.855Z,37.67
2019-01-31T01:33:02.765Z,36.23
2019-01-31T01:36:37.078Z,35.30
2019-01-31T01:40:02.188Z,36.50
2019-01-31T01:43:13.864Z,36.83
2019-01-31T01:46:50.899Z,35.97
2019-01-31T01:49:40.411Z,36.03
2019-01-31T01:53:24.031Z,39.30
2019-01-31T01:56:40.537Z,38.00
2019-01-31T02:00:20.096Z,35.40
2019-01-31T02:03:32.943Z,36.63
2019-01-31T02:07:12.191Z,37.00
2019-01-31T02:10:36.132Z,38.77
2019-01-31T02:14:11.451Z,38.93
2019-01-31T02:17:07.029Z,36.60
2019-01-31T02:20:40.681Z,39.43
2019-01-31T02:24:18.695Z,39.60
2019-01-31T02:27:55.534Z,38.00
2019-01-31T02:31:05.003Z,38.20
2019-01-31T02:34:38.182Z,38.60
2019-01-31T02:38:03.994Z,38.87
2019-01-31T02:40:59.372Z,39.53
2019-01-31T02:44:18.947Z,38.27
2019-01-31T02:47:54.055Z,39.03
2019-01-31T02:51:33.580Z,38.07
2019-01-31T02:54:33.044Z,40.40
2019-01-31T02:58:02.252Z,40.83
2019-01-31T03:01:21.748Z,41.53
2019-01-31T03:05:10.946Z,40.03
2019-01-31T03:08:26.124Z,40.77
2019-01-31T03:11:54.783Z,38.67
2019-01-31T03:14:39.693Z,39.23
2019-01-31T03:18:04.431Z,41.33
2019-01-31T03:21:03.707Z,40.47
2019-01-31T03:24:43.830Z,42.60
2019-01-31T03:27:54.637Z,41.50
2019-01-31T03:31:37.819Z,40.47
2019-01-31T03:34:38.187Z,41.27
2019-01-31T03:37:57.627Z,39.97
2019-01-31T03:40:40.058Z,42.97
2019-01-31T03:44:14.101Z,41.80
2019-01-31T03:48:04.199Z,43.57
2019-01-31T03:51:29.232Z,42.57
2019-01-31T03:55:16.737Z,40.90
2019-01-31T03:58:25.576Z,40.67
2019-01-31T04:02:08.125Z,43.70
2019-01-31T04:05:14.808Z,42.93
2019-01-31T04:07:47.223Z,42.27
2019-01-31T04:10:19.696Z,45.13
2019-01-31T04:12:52.157Z,44.57
2019-01-31T04:15:24.626Z,46.03
2019-01-31T04:17:57.200Z,44.40
2019-01-31T04:20:29.701Z,43.07
2019-01-31T04:23:02.052Z,44.87
2019-01-31T04:25:34.449Z,44.57
2019-01-31T04:28:07.168Z,42.17
2019-01-31T04:30:39.787Z,42.63
2019-01-31T04:33:12.180Z,44.23
2019-01-31T04:35:44.727Z,45.30
2019-01-31T04:38:19.793Z,43.00
2019-01-31T04:40:51.190Z,45.33
2019-01-31T04:43:23.791Z,44.23
2019-01-31T04:45:56.292Z,42.20
2019-01-31T04:48:28.896Z,44.83
2019-01-31T04:51:01.466Z,43.07
2019-01-31T04:53:33.955Z,43.23
2019-01-31T04:56:06.548Z,43.80
2019-01-31T04:58:39.369Z,45.93
2019-01-31T05:01:12.051Z,47.13
2019-01-31T05:03:44.678Z,44.97
2019-01-31T05:06:17.867Z,47.10
2019-01-31T05:08:50.342Z,44.10
2019-01-31T05:11:23.095Z,44.97
2019-01-31T05:13:55.731Z,46.30
2019-01-31T05:16:28.508Z,46.60
2019-01-31T05:19:00.941Z,43.80
2019-01-31T05:21:33.329Z,46.67
2019-01-31T05:24:05.755Z,44.90
2019-01-31T05:26:38.316Z,46.20
2019-01-31T05:29:10.773Z,43.00
2019-01-31T05:31:43.317Z,43.63
2019-01-31T05:34:15.847Z,41.70
2019-01-31T05:36:48.631Z,41.43
2019-01-31T05:39:21.201Z,41.07
2019-01-31T05:41:53.699Z,41.03
2019-01-31T05:44:26.272Z,45.10
2019-01-31T05:46:58.646Z,45.67
2019-01-31T05:49:31.205Z,42.33
2019-01-31T05:52:03.899Z,44.03
2019-01-31T05:54:36.417Z,43.83
2019-01-31T05:57:08.963Z,42.80
2019-01-31T05:59:41.949Z,45.07
2019-01-31T06:02:14.734Z,44.17
2019-01-31T06:04:47.107Z,41.03
2019-01-31T06:07:19.652Z,44.00
2019-01-31T06:09:52.029Z,43.47
2019-01-31T06:12:26.207Z,42.43
2019-01-31T06:14:58.478Z,41.80
2019-01-31T06:17:31.093Z,42.20
2019-01-31T06:20:03.454Z,42.70
2019-01-31T06:22:36.381Z,43.63
2019-01-31T06:25:09.163Z,41.30
2019-01-31T06:27:41.611Z,43.97
2019-01-31T06:30:16.135Z,43.73
2019-01-31T06:32:49.199Z,43.57
2019-01-31T06:35:21.676Z,41.70
2019-01-31T06:37:53.718Z,44.13
2019-01-31T06:40:26.243Z,46.77
2019-01-31T06:42:58.886Z,44.60
2019-01-31T06:45:33.007Z,50.93
2019-01-31T06:48:06.097Z,45.40
2019-01-31T06:50:38.628Z,54.43
2019-01-31T06:53:11.007Z,59.07
2019-01-31T06:55:43.464Z,46.70
2019-01-31T06:58:16.168Z,48.80
2019-01-31T07:00:48.706Z,46.87
2019-01-31T07:03:21.049Z,47.17
2019-01-31T07:05:53.641Z,48.63
2019-01-31T07:08:26.086Z,46.50
2019-01-31T07:10:58.637Z,48.10
2019-01-31T07:13:33.859Z,48.07
2019-01-31T07:16:05.359Z,46.03
2019-01-31T07:18:38.199Z,47.57
2019-01-31T07:21:10.987Z,49.57
2019-01-31T07:23:45.905Z,49.97
2019-01-31T07:26:17.573Z,46.27
2019-01-31T07:28:50.088Z,48.67
2019-01-31T14:44:37.584Z,25.63
2019-01-31T14:47:09.684Z,25.03
2019-01-31T14:49:41.708Z,26.23
2019-01-31T14:52:13.825Z,23.73
2019-01-31T14:54:45.942Z,28.73
2019-01-31T14:57:18.009Z,29.27
2019-01-31T14:59:50.289Z,29.33
2019-01-31T15:02:22.401Z,27.63
2019-01-31T15:04:54.467Z,29.33
2019-01-31T15:07:26.782Z,28.73
2019-01-31T15:09:58.855Z,30.83
2019-01-31T15:12:31.379Z,30.90
2019-01-31T15:15:03.446Z,34.67
2019-01-31T15:17:35.520Z,30.80
2019-01-31T15:20:37.612Z,33.40
2019-01-31T15:23:06.003Z,32.33
2019-01-31T15:25:39.634Z,30.90
2019-01-31T15:28:11.702Z,30.23
2019-01-31T15:30:44.039Z,33.37
2019-01-31T15:33:16.551Z,33.07
2019-01-31T15:35:48.694Z,30.00
2019-01-31T15:38:21.092Z,30.90
2019-01-31T15:40:53.504Z,29.67
2019-01-31T15:43:28.498Z,28.70
2019-01-31T15:46:00.497Z,31.90
2019-01-31T15:48:32.898Z,31.40
2019-01-31T15:51:05.241Z,33.03
2019-01-31T15:53:37.336Z,33.53
2019-01-31T15:56:10.702Z,31.00
2019-01-31T15:58:44.649Z,30.40
2019-01-31T16:01:17.123Z,31.60
2019-01-31T16:03:49.606Z,31.87
2019-01-31T16:06:23.919Z,32.20
2019-01-31T16:08:56.244Z,33.07
2019-01-31T16:11:28.506Z,32.83
2019-01-31T16:14:00.630Z,33.10
2019-01-31T16:16:32.782Z,30.50
2019-01-31T16:19:04.929Z,31.33
2019-01-31T16:21:38.520Z,33.90
2019-01-31T16:24:10.625Z,32.60
2019-01-31T16:26:42.727Z,32.10
2019-01-31T16:29:14.952Z,37.67
2019-01-31T16:31:47.128Z,34.80
2019-01-31T16:34:19.224Z,34.53
2019-01-31T16:36:51.270Z,33.93
2019-01-31T16:39:23.354Z,31.07
2019-01-31T16:41:55.794Z,31.33
2019-01-31T16:44:28.103Z,31.57
2019-01-31T16:47:01.340Z,28.57
2019-01-31T16:49:33.468Z,31.67
2019-01-31T16:52:06.070Z,30.50
2019-01-31T16:54:38.165Z,30.03
2019-01-31T16:57:10.368Z,30.23
2019-01-31T16:59:42.330Z,31.67
2019-01-31T17:02:14.464Z,28.93
2019-01-31T17:04:46.880Z,31.43
2019-01-31T17:07:19.344Z,30.93
2019-01-31T17:09:51.408Z,30.33
2019-01-31T17:12:23.645Z,32.97
2019-01-31T17:14:55.867Z,38.77
2019-01-31T17:17:28.087Z,36.07
2019-01-31T17:20:00.405Z,32.70
2019-01-31T17:22:32.830Z,32.97
2019-01-31T17:25:06.781Z,34.00
2019-01-31T17:27:38.850Z,37.07
2019-01-31T17:30:19.398Z,36.13
2019-01-31T17:32:51.500Z,33.60
2019-01-31T17:35:23.623Z,33.83
2019-01-31T17:37:55.641Z,34.83
2019-01-31T17:40:32.314Z,35.13
2019-01-31T17:43:05.038Z,36.53
2019-01-31T17:45:37.299Z,34.90
2019-01-31T17:48:12.379Z,33.67
2019-01-31T17:50:45.153Z,34.73
2019-01-31T17:53:18.496Z,35.37
2019-01-31T17:55:50.557Z,37.30
2019-01-31T17:58:22.662Z,33.50
2019-01-31T18:00:57.278Z,31.93
2019-01-31T18:03:30.139Z,33.50
2019-01-31T18:06:02.242Z,35.13
2019-01-31T18:08:34.212Z,32.80
2019-01-31T18:11:06.485Z,34.17
2019-01-31T18:13:38.669Z,38.00
2019-01-31T18:16:10.816Z,37.17
2019-01-31T18:18:42.885Z,46.10
2019-01-31T18:21:15.116Z,41.03
2019-01-31T18:23:47.124Z,37.80
2019-01-31T18:26:19.179Z,36.57
2019-01-31T18:28:51.649Z,41.90
2019-01-31T18:31:23.984Z,35.77
2019-01-31T18:33:56.349Z,37.00
2019-01-31T18:36:28.436Z,31.73
2019-01-31T18:39:01.403Z,29.77
2019-01-31T18:41:34.809Z,31.03
2019-01-31T18:44:07.307Z,32.40
2019-01-31T18:46:39.450Z,38.33
2019-01-31T18:49:11.556Z,34.03
2019-01-31T18:51:44.154Z,31.17
2019-01-31T18:54:19.806Z,33.30
2019-01-31T18:56:52.011Z,31.50
2019-01-31T18:59:24.409Z,32.83
2019-01-31T19:01:56.658Z,31.93
2019-01-31T19:04:28.877Z,32.77
2019-01-31T19:07:01.435Z,36.77
2019-01-31T19:09:33.673Z,33.67
2019-01-31T19:12:06.304Z,34.70
2019-01-31T19:14:38.339Z,35.40
2019-01-31T19:17:10.377Z,42.70
2019-01-31T19:19:42.444Z,37.93
2019-01-31T19:22:15.958Z,37.07
2019-01-31T19:24:48.010Z,39.90
2019-01-31T19:27:20.331Z,47.33
2019-01-31T19:29:52.884Z,38.97
2019-01-31T19:32:25.083Z,37.07
2019-01-31T19:34:57.190Z,37.87
2019-01-31T19:37:30.179Z,36.77
2019-01-31T19:40:02.862Z,35.70
2019-01-31T19:42:42.685Z,34.53
2019-01-31T19:45:38.069Z,35.23
2019-01-31T19:48:22.019Z,39.13
2019-01-31T19:50:54.584Z,37.50
2019-01-31T19:53:26.894Z,37.03
2019-01-31T19:56:00.663Z,37.17
2019-01-31T19:58:32.791Z,37.17
2019-01-31T20:01:05.164Z,43.20
2019-01-31T20:03:38.252Z,72.93
2019-01-31T20:06:10.621Z,42.50
2019-01-31T20:08:42.634Z,36.43
2019-01-31T20:11:14.652Z,36.73
2019-01-31T20:13:46.626Z,37.30
2019-01-31T20:16:28.564Z,39.10
2019-01-31T20:18:54.197Z,37.37
2019-01-31T20:21:38.411Z,36.70
2019-01-31T20:24:10.793Z,35.47
2019-01-31T20:26:42.962Z,38.63
2019-01-31T20:29:15.114Z,37.50
2019-01-31T20:31:47.217Z,36.37
2019-01-31T20:34:19.317Z,39.73
2019-01-31T20:36:51.565Z,39.43
2019-01-31T20:39:23.590Z,38.97
2019-01-31T20:41:55.628Z,39.20
2019-01-31T20:44:27.713Z,39.30
2019-01-31T20:46:59.771Z,43.63
2019-01-31T20:49:31.790Z,46.83
2019-01-31T20:52:03.911Z,39.73
2019-01-31T20:54:35.909Z,40.00
2019-01-31T20:57:08.155Z,49.20
2019-01-31T20:59:40.238Z,52.87
2019-01-31T21:02:12.360Z,46.87
2019-01-31T21:04:44.815Z,40.77
2019-01-31T21:07:16.828Z,40.00
2019-01-31T21:09:48.888Z,39.03
2019-01-31T21:12:23.776Z,38.53
2019-01-31T21:14:55.970Z,39.73
2019-01-31T21:17:28.222Z,38.80
2019-01-31T21:20:00.288Z,38.23
2019-01-31T21:22:32.453Z,38.40
2019-01-31T21:25:05.093Z,39.03
2019-01-31T21:27:37.323Z,39.53
2019-01-31T21:30:15.669Z,40.03
2019-01-31T21:32:47.960Z,39.90
2019-01-31T21:35:21.003Z,41.00
2019-01-31T21:37:53.586Z,39.77
2019-01-31T21:40:26.751Z,40.67
2019-01-31T21:43:00.124Z,39.77
2019-01-31T21:45:32.349Z,40.40
2019-01-31T21:48:04.944Z,40.37
2019-01-31T21:50:37.184Z,41.27
2019-01-31T21:53:10.342Z,38.97
2019-01-31T21:55:42.392Z,37.50
2019-01-31T21:58:14.438Z,36.13
2019-01-31T22:00:46.772Z,34.67
2019-01-31T22:03:18.941Z,35.50
2019-01-31T22:05:51.120Z,34.17
2019-01-31T22:08:23.304Z,32.97
2019-01-31T22:10:55.438Z,33.70
2019-01-31T22:13:28.219Z,30.47
2019-01-31T22:16:00.522Z,30.53
2019-01-31T22:18:32.690Z,31.10
2019-01-31T22:21:04.757Z,28.90
2019-01-31T22:23:36.835Z,29.97
2019-01-31T22:26:08.952Z,30.00
2019-01-31T22:28:40.960Z,28.53
2019-01-31T22:31:12.949Z,29.13
2019-01-31T22:33:45.025Z,27.90
2019-01-31T22:36:17.013Z,29.37
2019-01-31T22:38:49.126Z,28.50
2019-01-31T22:41:21.229Z,29.03
2019-01-31T22:43:53.646Z,32.13
2019-01-31T22:46:26.928Z,28.83
2019-01-31T22:48:59.072Z,30.03
2019-01-31T22:51:31.220Z,29.80
2019-01-31T22:54:03.358Z,32.97
2019-01-31T22:56:35.346Z,32.80
2019-01-31T22:59:07.617Z,31.00
2019-01-31T23:01:43.632Z,30.87
2019-01-31T23:04:15.766Z,28.53
2019-01-31T23:06:48.595Z,28.23
2019-01-31T23:09:20.827Z,28.27
2019-01-31T23:11:52.779Z,26.23
2019-01-31T23:14:26.848Z,26.03
2019-01-31T23:16:59.408Z,26.33
2019-01-31T23:19:31.469Z,24.53
2019-01-31T23:22:03.498Z,25.03
2019-01-31T23:24:35.537Z,27.20
2019-01-31T23:27:07.697Z,25.37
2019-01-31T23:29:40.060Z,25.43
2019-01-31T23:32:12.178Z,24.73
2019-01-31T23:34:44.626Z,24.27
2019-01-31T23:37:16.889Z,24.90
2019-01-31T23:39:49.081Z,23.93
2019-01-31T23:42:21.198Z,23.30
2019-01-31T23:44:53.258Z,26.30
2019-01-31T23:47:25.693Z,25.27
2019-01-31T23:49:57.724Z,23.67
2019-01-31T23:52:29.770Z,22.60
2019-01-31T23:55:03.730Z,23.40
2019-01-31T23:57:35.875Z,23.77
